createdAt,value
2022-09-09T00:02:17.337Z,0.60
2022-09-09T00:04:44.524Z,0.80
2022-09-09T00:07:14.943Z,0.63
2022-09-09T00:09:54.732Z,0.80
2022-09-09T00:12:42.644Z,0.60
2022-09-09T00:15:14.143Z,0.68
2022-09-09T00:18:06.756Z,0.70
2022-09-09T00:20:39.696Z,0.52
2022-09-09T00:23:14.005Z,0.60
2022-09-09T00:26:23.100Z,0.63
2022-09-09T00:29:04.023Z,0.50
2022-09-09T00:31:31.665Z,0.70
2022-09-09T00:34:14.550Z,0.60
2022-09-09T00:36:42.270Z,0.80
2022-09-09T00:39:24.704Z,0.60
2022-09-09T00:42:10.097Z,0.70
2022-09-09T00:44:38.582Z,0.60
2022-09-09T00:47:43.432Z,0.50
2022-09-09T00:50:25.940Z,0.50
2022-09-09T00:52:58.811Z,0.60
2022-09-09T00:55:43.597Z,0.60
2022-09-09T00:58:10.420Z,0.70
2022-09-09T01:00:50.052Z,0.80
2022-09-09T01:03:21.829Z,0.65
2022-09-09T01:06:17.957Z,0.73
2022-09-09T01:08:56.579Z,0.55
2022-09-09T01:11:43.637Z,0.65
2022-09-09T01:14:39.159Z,0.57
2022-09-09T01:17:27.324Z,0.88
2022-09-09T01:20:06.755Z,0.60
2022-09-09T01:22:36.566Z,0.75
2022-09-09T01:25:44.742Z,0.45
2022-09-09T01:28:14.779Z,0.68
2022-09-09T01:30:42.256Z,0.60
2022-09-09T01:33:13.853Z,0.60
2022-09-09T01:35:55.238Z,0.65
2022-09-09T01:38:22.468Z,0.68
2022-09-09T01:40:50.455Z,0.60
2022-09-09T01:43:17.192Z,0.50
2022-09-09T01:45:44.650Z,0.55
2022-09-09T01:48:11.385Z,0.57
2022-09-09T01:50:38.175Z,0.70
2022-09-09T01:53:04.935Z,0.40
2022-09-09T01:55:40.840Z,0.75
2022-09-09T01:58:22.553Z,0.57
2022-09-09T02:01:07.387Z,0.63
2022-09-09T02:03:37.449Z,0.50
2022-09-09T02:06:32.244Z,0.50
2022-09-09T02:09:18.962Z,0.50
2022-09-09T02:11:45.738Z,0.50
2022-09-09T02:14:24.823Z,0.57
2022-09-09T02:16:56.565Z,0.55
2022-09-09T02:19:26.405Z,0.60
2022-09-09T02:24:41.368Z,0.50
2022-09-09T02:27:09.821Z,0.60
2022-09-09T02:29:40.194Z,0.60
2022-09-09T02:32:08.390Z,0.52
2022-09-09T02:34:37.227Z,0.50
2022-09-09T02:37:04.546Z,0.80
2022-09-09T02:39:31.356Z,0.50
2022-09-09T02:41:58.094Z,0.70
2022-09-09T02:44:24.890Z,0.50
2022-09-09T02:47:13.936Z,0.80
2022-09-09T02:49:51.010Z,0.60
2022-09-09T02:52:23.549Z,0.60
2022-09-09T02:54:50.289Z,0.40
2022-09-09T02:57:31.047Z,0.52
2022-09-09T03:00:01.453Z,0.50
2022-09-09T03:02:28.279Z,0.75
2022-09-09T03:04:55.139Z,0.70
2022-09-09T03:07:22.082Z,0.50
2022-09-09T03:09:49.118Z,0.70
2022-09-09T03:12:15.830Z,0.55
2022-09-09T03:14:42.864Z,0.60
2022-09-09T03:17:10.237Z,0.57
2022-09-09T03:19:37.201Z,0.68
2022-09-09T03:22:05.435Z,0.52
2022-09-09T03:24:32.150Z,0.50
2022-09-09T03:26:58.912Z,0.60
2022-09-09T03:29:26.245Z,0.45
2022-09-09T03:31:53.032Z,0.55
2022-09-09T03:34:19.842Z,0.60
2022-09-09T03:36:47.274Z,0.50
2022-09-09T03:39:15.350Z,0.55
2022-09-09T03:41:42.062Z,0.50
2022-09-09T03:44:08.786Z,0.50
2022-09-09T03:46:35.583Z,0.52
2022-09-09T03:49:03.376Z,0.50
2022-09-09T03:51:30.140Z,0.40
2022-09-09T03:53:57.840Z,0.60
2022-09-09T03:56:24.838Z,0.65
2022-09-09T03:58:51.622Z,0.55
2022-09-09T04:01:18.977Z,0.52
2022-09-09T04:03:46.196Z,0.55
2022-09-09T04:06:14.455Z,0.60
2022-09-09T04:08:41.342Z,0.75
2022-09-09T04:11:08.516Z,0.50
2022-09-09T04:13:35.798Z,0.60
2022-09-09T04:16:03.360Z,0.50
2022-09-09T04:18:30.296Z,0.50
2022-09-09T04:20:58.751Z,0.50
2022-09-09T04:23:26.520Z,0.65
2022-09-09T04:25:54.468Z,0.50
2022-09-09T04:28:22.549Z,0.60
2022-09-09T04:30:49.284Z,0.70
2022-09-09T04:33:16.035Z,0.57
2022-09-09T04:35:50.447Z,0.70
2022-09-09T04:38:17.782Z,0.40
2022-09-09T04:40:47.925Z,0.55
2022-09-09T04:43:15.796Z,0.70
2022-09-09T04:45:43.485Z,0.80
2022-09-09T04:48:13.056Z,0.60
2022-09-09T04:50:39.907Z,0.70
2022-09-09T04:53:07.180Z,0.68
2022-09-09T04:55:35.999Z,0.65
2022-09-09T04:58:06.979Z,0.82
2022-09-09T05:00:34.924Z,0.70
2022-09-09T05:03:05.166Z,0.65
2022-09-09T05:05:32.225Z,0.70
2022-09-09T05:08:03.984Z,0.75
2022-09-09T05:10:31.132Z,0.60
2022-09-09T05:12:57.913Z,0.80
2022-09-09T05:15:24.672Z,0.73
2022-09-09T05:17:53.711Z,0.75
2022-09-09T05:20:20.724Z,0.75
2022-09-09T05:22:47.662Z,0.77
2022-09-09T05:25:15.012Z,0.80
2022-09-09T05:27:42.020Z,0.90
2022-09-09T05:30:10.182Z,0.73
2022-09-09T05:32:37.705Z,0.98
2022-09-09T05:35:05.294Z,0.88
2022-09-09T05:37:32.485Z,0.70
2022-09-09T05:39:59.363Z,1.02
2022-09-09T05:42:26.248Z,0.80
2022-09-09T05:44:55.365Z,0.60
2022-09-09T05:47:22.179Z,0.82
2022-09-09T05:49:49.608Z,0.82
2022-09-09T05:52:16.642Z,1.05
2022-09-09T05:54:44.437Z,1.17
2022-09-09T05:57:11.166Z,1.20
2022-09-09T05:59:38.315Z,1.30
2022-09-09T06:02:05.187Z,1.17
2022-09-09T06:04:32.355Z,1.02
2022-09-09T06:06:59.106Z,1.27
2022-09-09T06:09:26.307Z,1.20
2022-09-09T06:11:53.104Z,1.00
2022-09-09T06:14:19.928Z,1.20
2022-09-09T06:16:47.177Z,1.10
2022-09-09T06:19:14.029Z,1.20
2022-09-09T06:21:41.303Z,1.17
2022-09-09T06:24:11.511Z,1.08
2022-09-09T06:26:41.640Z,0.93
2022-09-09T06:29:08.428Z,1.05
2022-09-09T06:31:35.864Z,0.98
2022-09-09T06:34:03.156Z,1.23
2022-09-09T06:36:34.842Z,1.00
2022-09-09T06:39:01.783Z,0.80
2022-09-09T06:41:30.178Z,1.08
2022-09-09T06:43:56.923Z,0.93
2022-09-09T06:46:28.371Z,1.13
2022-09-09T06:49:00.266Z,1.00
2022-09-09T06:51:31.767Z,1.08
2022-09-09T06:54:03.219Z,1.10
2022-09-09T06:56:37.356Z,1.02
2022-09-09T06:59:06.099Z,0.82
2022-09-09T07:01:34.564Z,1.05
2022-09-09T07:04:02.097Z,1.35
2022-09-09T07:06:30.309Z,0.88
2022-09-09T07:08:58.778Z,1.00
2022-09-09T07:11:30.430Z,0.88
2022-09-09T07:13:58.509Z,1.00
2022-09-09T07:16:25.930Z,1.00
2022-09-09T07:18:53.722Z,1.05
2022-09-09T07:21:21.968Z,0.90
2022-09-09T07:23:48.728Z,1.13
2022-09-09T07:26:16.905Z,1.23
2022-09-09T07:28:43.668Z,0.98
2022-09-09T07:31:18.469Z,0.98
2022-09-09T07:33:45.716Z,0.93
2022-09-09T07:36:16.837Z,0.85
2022-09-09T07:38:46.236Z,1.00
2022-09-09T07:41:18.233Z,1.33
2022-09-09T07:43:46.323Z,1.40
2022-09-09T07:46:13.918Z,1.10
2022-09-09T07:48:45.636Z,1.15
2022-09-09T07:51:17.916Z,0.95
2022-09-09T07:53:44.941Z,1.35
2022-09-09T07:56:13.872Z,1.23
2022-09-09T07:58:41.330Z,1.15
2022-09-09T08:01:12.436Z,1.10
2022-09-09T08:03:39.220Z,1.50
2022-09-09T08:06:08.032Z,1.20
2022-09-09T08:08:35.685Z,1.20
2022-09-09T08:11:12.948Z,1.17
2022-09-09T08:13:40.152Z,1.08
2022-09-09T08:16:12.558Z,1.08
2022-09-09T08:18:40.190Z,1.60
2022-09-09T08:21:12.823Z,1.02
2022-09-09T08:23:42.157Z,1.17
2022-09-09T08:26:13.675Z,1.20
2022-09-09T08:28:41.145Z,1.15
2022-09-09T08:31:15.714Z,1.58
2022-09-09T08:33:43.244Z,1.20
2022-09-09T08:36:11.452Z,1.30
2022-09-09T08:38:38.602Z,1.10
2022-09-09T08:41:31.816Z,1.10
2022-09-09T08:44:34.904Z,1.40
2022-09-09T08:47:23.746Z,1.15
2022-09-09T08:50:25.016Z,1.13
2022-09-09T08:53:11.481Z,1.25
2022-09-09T08:56:17.174Z,1.45
2022-09-09T08:58:54.286Z,1.73
2022-09-09T09:01:32.768Z,1.65
2022-09-09T09:04:09.719Z,1.45
2022-09-09T09:07:01.558Z,1.60
2022-09-09T09:09:37.337Z,1.75
2022-09-09T09:12:12.202Z,1.70
2022-09-09T09:14:38.932Z,1.45
2022-09-09T09:17:14.103Z,1.30
2022-09-09T09:19:41.826Z,1.65
2022-09-09T09:22:35.176Z,1.48
2022-09-09T09:25:21.672Z,1.45
2022-09-09T09:28:07.168Z,1.60
2022-09-09T09:30:39.709Z,1.50
2022-09-09T09:33:24.244Z,1.50
2022-09-09T09:35:51.804Z,1.40
2022-09-09T09:41:07.697Z,1.10
2022-09-09T09:43:35.764Z,1.13
2022-09-09T09:46:17.587Z,1.13
2022-09-09T09:48:47.305Z,1.30
2022-09-09T09:51:17.042Z,1.30
2022-09-09T09:53:43.860Z,1.52
2022-09-09T09:56:11.805Z,1.38
2022-09-09T09:58:59.697Z,1.48
2022-09-09T10:01:34.311Z,1.10
2022-09-09T10:04:03.163Z,1.33
2022-09-09T10:06:38.532Z,1.30
2022-09-09T10:09:19.739Z,1.67
2022-09-09T10:11:59.105Z,1.40
2022-09-09T10:14:32.096Z,1.30
2022-09-09T10:17:07.626Z,1.10
2022-09-09T10:19:38.131Z,1.23
2022-09-09T10:22:13.713Z,1.17
2022-09-09T10:24:45.923Z,1.13
2022-09-09T10:27:17.792Z,1.17
2022-09-09T10:29:48.920Z,1.00
2022-09-09T10:32:38.345Z,1.30
2022-09-09T10:35:24.372Z,1.13
2022-09-09T10:38:03.479Z,1.15
2022-09-09T10:40:34.644Z,1.20
2022-09-09T10:43:18.967Z,0.88
2022-09-09T10:46:08.004Z,0.95
2022-09-09T10:48:40.290Z,1.00
2022-09-09T10:51:37.648Z,1.13
2022-09-09T10:54:14.942Z,1.20
2022-09-09T10:56:43.394Z,1.17
2022-09-09T10:59:18.472Z,0.93
2022-09-09T11:02:01.171Z,1.10
2022-09-09T11:04:45.704Z,1.20
2022-09-09T11:07:15.487Z,1.10
2022-09-09T11:09:49.489Z,1.08
2022-09-09T11:12:19.990Z,1.25
2022-09-09T11:15:07.966Z,1.20
2022-09-09T11:17:42.087Z,1.35
2022-09-09T11:20:12.684Z,1.15
2022-09-09T11:22:44.666Z,1.20
2022-09-09T11:25:23.460Z,1.10
2022-09-09T11:28:04.044Z,1.20
2022-09-09T11:30:55.705Z,1.02
2022-09-09T11:33:25.426Z,1.00
2022-09-09T11:36:07.258Z,0.90
2022-09-09T11:38:47.846Z,1.15
2022-09-09T11:41:20.873Z,1.30
2022-09-09T11:43:53.091Z,1.17
2022-09-09T11:46:37.578Z,1.15
2022-09-09T11:49:06.378Z,1.20
2022-09-09T11:51:34.051Z,0.98
2022-09-09T11:54:06.110Z,1.00
2022-09-09T11:56:34.547Z,0.95
2022-09-09T11:59:23.341Z,1.27
2022-09-09T12:02:04.066Z,1.60
2022-09-09T12:04:40.902Z,1.38
2022-09-09T12:07:10.806Z,1.23
2022-09-09T12:10:04.617Z,0.98
2022-09-09T12:12:41.668Z,1.30
2022-09-09T12:15:13.493Z,1.30
2022-09-09T12:18:00.162Z,1.10
2022-09-09T12:20:35.963Z,1.27
2022-09-09T12:23:36.637Z,1.40
2022-09-09T12:26:28.025Z,1.50
2022-09-09T12:29:00.707Z,1.38
2022-09-09T12:32:03.022Z,1.50
2022-09-09T12:34:49.796Z,1.20
2022-09-09T12:37:33.232Z,1.65
2022-09-09T12:40:01.537Z,1.20
2022-09-09T12:42:28.498Z,1.42
2022-09-09T12:44:59.731Z,1.50
2022-09-09T12:47:30.244Z,1.42
2022-09-09T12:49:58.163Z,1.30
2022-09-09T12:52:36.712Z,1.27
2022-09-09T12:55:05.304Z,1.00
2022-09-09T12:57:35.937Z,1.40
2022-09-09T13:00:16.783Z,1.45
2022-09-09T13:02:57.548Z,1.30
2022-09-09T13:05:38.327Z,1.13
2022-09-09T13:08:11.163Z,1.15
2022-09-09T13:10:58.941Z,1.50
2022-09-09T13:13:42.535Z,1.00
2022-09-09T13:16:40.237Z,1.00
2022-09-09T13:19:10.866Z,1.40
2022-09-09T13:21:39.356Z,0.80
2022-09-09T13:24:31.203Z,1.73
2022-09-09T13:27:05.465Z,1.00
2022-09-09T13:29:32.992Z,0.90
2022-09-09T13:32:08.805Z,1.00
2022-09-09T13:34:36.652Z,3.35
2022-09-09T13:37:07.459Z,2.45
2022-09-09T13:39:37.885Z,3.10
2022-09-09T13:42:05.581Z,1.63
2022-09-09T13:44:35.451Z,1.42
2022-09-09T13:47:20.088Z,1.77
2022-09-09T13:49:47.209Z,1.60
2022-09-09T13:52:16.549Z,1.80
2022-09-09T13:54:44.578Z,1.90
2022-09-09T13:57:21.786Z,1.70
2022-09-09T14:00:05.483Z,1.55
2022-09-09T14:02:35.897Z,1.70
2022-09-09T14:05:02.879Z,1.67
2022-09-09T14:07:30.279Z,1.40
2022-09-09T14:09:57.517Z,1.15
2022-09-09T14:12:26.752Z,1.75
2022-09-09T14:14:53.617Z,1.30
2022-09-09T14:17:20.370Z,1.52
2022-09-09T14:19:47.122Z,1.40
2022-09-09T14:22:14.020Z,1.27
2022-09-09T14:24:40.741Z,1.38
2022-09-09T14:27:07.527Z,1.45
2022-09-09T14:29:34.304Z,1.10
2022-09-09T14:32:01.999Z,0.93
2022-09-09T14:34:28.852Z,1.08
2022-09-09T14:36:55.561Z,1.73
2022-09-09T14:39:22.260Z,1.10
2022-09-09T14:41:48.980Z,1.30
2022-09-09T14:44:16.991Z,0.90
2022-09-09T14:46:43.907Z,1.23
2022-09-09T14:49:11.410Z,1.45
2022-09-09T14:51:38.202Z,1.10
2022-09-09T14:54:04.985Z,1.20
2022-09-09T14:56:35.501Z,0.95
2022-09-09T14:59:02.961Z,1.00
2022-09-09T15:01:30.508Z,1.20
2022-09-09T15:04:01.809Z,0.90
2022-09-09T15:06:34.072Z,1.20
2022-09-09T15:09:01.349Z,1.00
2022-09-09T15:11:31.345Z,1.02
2022-09-09T15:13:59.071Z,1.35
2022-09-09T15:16:27.853Z,1.13
2022-09-09T15:18:56.101Z,1.10
2022-09-09T15:21:24.277Z,1.05
2022-09-09T15:23:51.930Z,0.98
2022-09-09T15:26:18.985Z,0.80
2022-09-09T15:28:46.560Z,1.35
2022-09-09T15:31:27.236Z,1.15
2022-09-09T15:33:54.756Z,1.10
2022-09-09T15:36:26.043Z,1.00
2022-09-09T15:38:52.974Z,0.93
2022-09-09T15:41:20.951Z,1.10
2022-09-09T15:43:49.735Z,1.38
2022-09-09T15:46:27.094Z,1.10
2022-09-09T15:49:15.171Z,1.13
2022-09-09T15:51:44.469Z,1.00
2022-09-09T15:54:20.853Z,0.95
2022-09-09T15:56:49.732Z,1.00
2022-09-09T15:59:16.520Z,1.20
2022-09-09T16:01:44.216Z,0.90
2022-09-09T16:04:11.172Z,1.30
2022-09-09T16:06:38.377Z,1.30
2022-09-09T16:09:07.021Z,1.00
2022-09-09T16:11:36.564Z,1.42
2022-09-09T16:14:04.945Z,1.27
2022-09-09T16:16:32.079Z,1.48
2022-09-09T16:19:00.541Z,1.30
2022-09-09T16:21:31.637Z,1.45
2022-09-09T16:24:03.420Z,1.38
2022-09-09T16:26:31.977Z,1.10
2022-09-09T16:28:59.896Z,1.38
2022-09-09T16:31:27.713Z,1.15
2022-09-09T16:33:54.544Z,1.20
2022-09-09T16:36:23.817Z,1.10
2022-09-09T16:38:55.845Z,1.10
2022-09-09T16:41:23.079Z,1.02
2022-09-09T16:43:54.146Z,1.27
2022-09-09T16:46:21.018Z,1.20
2022-09-09T16:48:48.062Z,1.10
2022-09-09T16:51:15.771Z,1.00
2022-09-09T16:53:45.929Z,1.20
2022-09-09T16:56:15.153Z,1.40
2022-09-09T16:58:43.018Z,1.10
2022-09-09T17:01:10.010Z,1.10
2022-09-09T17:03:38.103Z,1.17
2022-09-09T17:06:09.336Z,1.30
2022-09-09T17:08:36.063Z,1.15
2022-09-09T17:11:02.783Z,1.10
2022-09-09T17:13:29.530Z,1.50
2022-09-09T17:16:00.908Z,1.25
2022-09-09T17:18:29.857Z,1.13
2022-09-09T17:20:56.565Z,1.35
2022-09-09T17:23:23.916Z,1.10
2022-09-09T17:25:58.208Z,1.30
2022-09-09T17:28:28.363Z,1.55
2022-09-09T17:30:55.183Z,1.33
2022-09-09T17:33:21.975Z,1.40
2022-09-09T17:35:50.088Z,1.40
2022-09-09T17:38:16.891Z,1.52
2022-09-09T17:40:43.757Z,1.38
2022-09-09T17:43:10.464Z,1.33
2022-09-09T17:45:37.245Z,1.20
2022-09-09T17:48:05.114Z,1.45
2022-09-09T17:50:33.787Z,1.00
2022-09-09T17:53:00.765Z,1.35
2022-09-09T17:55:27.474Z,1.00
2022-09-09T17:57:54.189Z,1.13
2022-09-09T18:00:21.077Z,1.15
2022-09-09T18:02:48.360Z,1.00
2022-09-09T18:05:16.260Z,1.20
2022-09-09T18:07:42.982Z,1.27
2022-09-09T18:10:09.833Z,1.10
2022-09-09T18:12:36.557Z,1.13
2022-09-09T18:15:04.262Z,1.33
2022-09-09T18:17:31.869Z,1.40
2022-09-09T18:19:58.626Z,1.13
2022-09-09T18:22:25.734Z,1.17
2022-09-09T18:24:53.107Z,1.33
2022-09-09T18:27:20.393Z,0.93
2022-09-09T18:29:47.153Z,1.23
2022-09-09T18:32:15.117Z,1.10
2022-09-09T18:34:41.861Z,1.20
2022-09-09T18:37:10.230Z,0.98
2022-09-09T18:39:37.029Z,1.48
2022-09-09T18:42:04.669Z,1.88
2022-09-09T18:44:33.067Z,1.30
2022-09-09T18:47:00.359Z,1.08
2022-09-09T18:49:27.175Z,1.20
2022-09-09T18:51:54.011Z,1.42
2022-09-09T18:54:22.943Z,1.38
2022-09-09T18:56:49.872Z,1.27
2022-09-09T18:59:21.152Z,1.48
2022-09-09T19:01:48.453Z,2.00
2022-09-09T19:04:15.291Z,1.75
2022-09-09T19:06:44.148Z,1.33
2022-09-09T19:09:12.173Z,1.83
2022-09-09T19:11:39.177Z,1.40
2022-09-09T19:14:10.881Z,1.58
2022-09-09T19:16:37.761Z,1.13
2022-09-09T19:19:06.286Z,1.55
2022-09-09T19:21:38.138Z,1.30
2022-09-09T19:24:13.426Z,1.30
2022-09-09T19:26:43.320Z,1.23
2022-09-09T19:29:12.091Z,1.17
2022-09-09T19:31:38.879Z,1.48
2022-09-09T19:34:05.773Z,1.15
2022-09-09T19:36:32.706Z,1.30
2022-09-09T19:39:00.397Z,1.17
2022-09-09T19:41:27.999Z,1.40
2022-09-09T19:44:02.426Z,1.10
2022-09-09T19:46:30.374Z,1.20
2022-09-09T19:48:57.556Z,0.93
2022-09-09T19:51:24.855Z,1.70
2022-09-09T19:53:53.317Z,1.45
2022-09-09T19:56:21.855Z,1.33
2022-09-09T19:58:48.854Z,1.20
2022-09-09T20:01:17.544Z,1.13
2022-09-09T20:03:45.453Z,1.00
2022-09-09T20:06:14.117Z,1.20
2022-09-09T20:08:41.299Z,0.98
2022-09-09T20:11:08.426Z,1.00
2022-09-09T20:13:37.474Z,1.30
2022-09-09T20:16:12.385Z,1.10
2022-09-09T20:18:41.979Z,1.02
2022-09-09T20:21:14.363Z,1.10
2022-09-09T20:23:42.284Z,0.93
2022-09-09T20:26:13.363Z,1.00
2022-09-09T20:28:41.236Z,1.27
2022-09-09T20:31:09.948Z,0.82
2022-09-09T20:33:36.858Z,0.90
2022-09-09T20:36:30.940Z,1.10
2022-09-09T20:38:59.699Z,1.30
2022-09-09T20:41:31.285Z,1.02
2022-09-09T20:43:58.819Z,0.98
2022-09-09T20:46:26.999Z,1.05
2022-09-09T20:49:02.644Z,1.13
2022-09-09T20:51:31.236Z,1.27
2022-09-09T20:54:05.667Z,0.90
2022-09-09T20:56:40.131Z,1.13
2022-09-09T20:59:07.672Z,1.05
2022-09-09T21:01:34.442Z,1.00
2022-09-09T21:04:01.706Z,1.00
2022-09-09T21:06:28.458Z,1.05
2022-09-09T21:08:55.182Z,1.00
2022-09-09T21:11:21.910Z,1.00
2022-09-09T21:13:48.764Z,1.08
2022-09-09T21:16:19.326Z,0.90
2022-09-09T21:18:46.114Z,0.80
2022-09-09T21:21:12.861Z,1.02
2022-09-09T21:23:39.632Z,1.00
2022-09-09T21:26:07.670Z,0.90
2022-09-09T21:28:35.691Z,1.15
2022-09-09T21:31:02.583Z,1.33
2022-09-09T21:33:29.433Z,1.05
2022-09-09T21:36:01.921Z,1.10
2022-09-09T21:38:29.288Z,1.10
2022-09-09T21:40:56.014Z,1.08
2022-09-09T21:43:23.675Z,1.00
2022-09-09T21:45:53.693Z,0.93
2022-09-09T21:48:20.499Z,0.90
2022-09-09T21:50:47.695Z,0.70
2022-09-09T21:53:16.456Z,1.00
2022-09-09T21:55:43.570Z,0.90
2022-09-09T21:58:10.425Z,0.80
2022-09-09T22:00:40.263Z,0.85
2022-09-09T22:03:07.146Z,0.90
2022-09-09T22:05:33.982Z,0.88
2022-09-09T22:08:00.752Z,1.23
2022-09-09T22:10:27.466Z,0.98
2022-09-09T22:12:54.241Z,0.98
2022-09-09T22:15:21.194Z,0.95
2022-09-09T22:17:49.129Z,1.08
2022-09-09T22:20:16.218Z,1.00
2022-09-09T22:22:43.101Z,1.10
2022-09-09T22:25:09.913Z,0.73
2022-09-09T22:27:36.638Z,0.80
2022-09-09T22:30:03.791Z,0.73
2022-09-09T22:32:31.248Z,0.90
2022-09-09T22:34:58.952Z,0.95
2022-09-09T22:37:26.286Z,0.68
2022-09-09T22:39:53.169Z,0.88
2022-09-09T22:42:19.901Z,0.90
2022-09-09T22:44:46.610Z,0.90
2022-09-09T22:47:13.505Z,0.82
2022-09-09T22:49:40.216Z,0.70
2022-09-09T22:52:08.810Z,1.02
2022-09-09T22:54:35.521Z,0.95
2022-09-09T22:57:02.241Z,1.00
2022-09-09T22:59:29.608Z,0.90
2022-09-09T23:01:58.617Z,0.90
2022-09-09T23:04:27.457Z,0.80
2022-09-09T23:06:54.181Z,0.70
2022-09-09T23:09:20.952Z,0.70
2022-09-09T23:11:48.106Z,0.77
2022-09-09T23:14:15.050Z,0.80
2022-09-09T23:16:44.334Z,0.60
2022-09-09T23:19:16.033Z,0.90
2022-09-09T23:21:44.189Z,0.85
2022-09-09T23:24:12.606Z,0.90
2022-09-09T23:26:39.565Z,0.88
2022-09-09T23:29:06.390Z,0.77
2022-09-09T23:31:34.104Z,0.77
2022-09-09T23:34:01.172Z,0.80
2022-09-09T23:36:29.615Z,0.80
2022-09-09T23:38:58.069Z,0.80
2022-09-09T23:41:24.845Z,1.00
2022-09-09T23:43:52.865Z,1.00
2022-09-09T23:46:22.664Z,0.80
2022-09-09T23:48:52.668Z,0.70
2022-09-09T23:51:23.893Z,0.80
2022-09-09T23:53:52.636Z,0.50
2022-09-09T23:56:24.254Z,0.80
2022-09-09T23:58:51.165Z,0.70
